Time;durP1;ratioP1;P1;durP2;ratioP2;P2;SDS_P1;SDS_P2;PMS_P1;PMS_P2;Temp;Humidity;BMP_temperature;BMP_pressure;BME280_temperature;BME280_humidity;BME280_pressure;Samples;Min_cycle;Max_cycle;Signal;HPM_P1;HPM_P2
2022/03/16 00:00:01;;;;;;;129.80;42.53;;;4.70;99.90;;;;;;5012878;28;20471;-75
2022/03/16 00:02:27;;;;;;;126.45;42.70;;;4.70;99.90;;;;;;5014125;28;20045;-75
2022/03/16 00:04:54;;;;;;;143.10;41.97;;;4.60;99.90;;;;;;5014700;28;20529;-76
2022/03/16 00:07:22;;;;;;;117.50;38.00;;;4.70;99.90;;;;;;5013104;28;20505;-74
2022/03/16 00:09:48;;;;;;;126.60;41.65;;;4.50;99.90;;;;;;5014294;28;20053;-74
2022/03/16 00:12:17;;;;;;;132.07;41.40;;;4.60;99.90;;;;;;5013067;28;20422;-75
2022/03/16 00:14:43;;;;;;;126.70;40.70;;;4.50;99.90;;;;;;4997148;28;20402;-75
2022/03/16 00:17:09;;;;;;;129.57;42.35;;;4.60;99.90;;;;;;4997098;28;20104;-75
2022/03/16 00:19:36;;;;;;;129.90;40.55;;;4.60;99.90;;;;;;5013523;28;20540;-75
2022/03/16 00:22:03;;;;;;;132.23;41.27;;;4.60;99.90;;;;;;4996399;28;20132;-75
2022/03/16 00:24:29;;;;;;;122.25;39.67;;;4.60;99.90;;;;;;4996547;28;20045;-75
2022/03/16 00:26:55;;;;;;;126.07;40.53;;;4.60;99.90;;;;;;4996506;28;20085;-76
2022/03/16 00:29:21;;;;;;;133.13;42.45;;;4.50;99.90;;;;;;4996639;28;20428;-75
2022/03/16 00:31:47;;;;;;;129.02;40.90;;;4.50;99.90;;;;;;5013196;28;20073;-74
2022/03/16 00:34:13;;;;;;;122.43;41.17;;;4.50;99.90;;;;;;4996677;28;20473;-75
2022/03/16 00:36:39;;;;;;;125.97;42.53;;;4.50;99.90;;;;;;5012317;28;20049;-75
2022/03/16 00:39:06;;;;;;;123.78;40.00;;;4.40;99.90;;;;;;5013102;28;20588;-74
2022/03/16 00:41:33;;;;;;;134.63;42.15;;;4.40;99.90;;;;;;4996278;28;20450;-75
2022/03/16 00:43:59;;;;;;;124.70;39.60;;;4.40;99.90;;;;;;5012110;28;20041;-74
2022/03/16 00:46:25;;;;;;;120.90;39.13;;;4.40;99.90;;;;;;5013404;28;20057;-74
2022/03/16 00:48:52;;;;;;;123.35;37.42;;;4.40;99.90;;;;;;4980067;28;20103;-75
2022/03/16 00:51:19;;;;;;;117.63;38.72;;;4.50;99.90;;;;;;5014014;28;20152;-73
2022/03/16 00:53:45;;;;;;;109.22;37.83;;;4.50;99.90;;;;;;5013458;28;20128;-75
2022/03/16 00:56:13;;;;;;;117.55;38.40;;;4.60;99.90;;;;;;5013400;28;20050;-75
2022/03/16 00:58:39;;;;;;;115.53;39.40;;;4.60;99.90;;;;;;5012981;28;20054;-73
2022/03/16 01:01:08;;;;;;;136.63;41.30;;;4.50;99.90;;;;;;5012693;28;20121;-74
2022/03/16 01:03:35;;;;;;;132.93;41.50;;;4.50;99.90;;;;;;4997003;28;20045;-74
2022/03/16 01:06:02;;;;;;;185.95;56.70;;;4.50;99.90;;;;;;5012569;28;20046;-74
2022/03/16 01:08:28;;;;;;;111.78;36.60;;;4.60;99.90;;;;;;5012822;28;20050;-73
2022/03/16 01:10:54;;;;;;;119.60;38.38;;;4.40;99.90;;;;;;4995505;28;20057;-74
2022/03/16 01:13:22;;;;;;;117.43;40.22;;;4.20;99.90;;;;;;5013120;28;20050;-73
2022/03/16 01:15:48;;;;;;;128.43;39.63;;;4.20;99.90;;;;;;5011881;28;20050;-72
2022/03/16 01:18:15;;;;;;;116.18;39.28;;;4.10;99.90;;;;;;5012568;28;20049;-72
2022/03/16 01:20:43;;;;;;;128.15;40.33;;;4.00;99.90;;;;;;5011886;28;20046;-73
2022/03/16 01:23:09;;;;;;;129.93;42.00;;;4.00;99.90;;;;;;4980914;28;20351;-74
2022/03/16 01:25:36;;;;;;;147.75;47.03;;;4.00;99.90;;;;;;4979876;28;20049;-74
2022/03/16 01:28:01;;;;;;;144.73;46.15;;;4.10;99.90;;;;;;5013089;28;20042;-74
2022/03/16 01:30:27;;;;;;;132.38;42.15;;;4.00;99.90;;;;;;4979441;28;20050;-74
2022/03/16 01:32:53;;;;;;;130.75;41.15;;;4.00;99.90;;;;;;4996552;28;20046;-72
2022/03/16 01:35:19;;;;;;;116.22;39.45;;;3.90;99.90;;;;;;5013036;28;20048;-72
2022/03/16 01:37:45;;;;;;;128.77;40.28;;;3.70;99.90;;;;;;4995287;28;20176;-72
2022/03/16 01:40:11;;;;;;;129.38;41.00;;;3.70;99.90;;;;;;4995640;28;20082;-73
2022/03/16 01:42:37;;;;;;;141.20;43.63;;;3.70;99.90;;;;;;5011834;28;20100;-72
2022/03/16 01:45:03;;;;;;;134.52;42.05;;;3.70;99.90;;;;;;5011990;28;20465;-73
2022/03/16 01:47:29;;;;;;;135.88;43.97;;;3.80;99.90;;;;;;5013341;28;20049;-73
2022/03/16 01:50:08;;;;;;;129.77;40.95;;;3.80;99.90;;;;;;5013352;28;20194;-74
2022/03/16 01:52:34;;;;;;;136.00;42.60;;;3.90;99.90;;;;;;5012159;28;20224;-73
2022/03/16 01:55:05;;;;;;;133.25;43.38;;;3.90;99.90;;;;;;4979774;28;20037;-73
2022/03/16 01:57:33;;;;;;;128.63;42.25;;;3.90;99.90;;;;;;5015059;28;20041;-73
2022/03/16 02:00:01;;;;;;;135.38;42.20;;;3.90;99.90;;;;;;5015965;28;20049;-73
2022/03/16 02:02:27;;;;;;;145.27;42.63;;;3.80;99.90;;;;;;5015732;28;20046;-73
2022/03/16 02:04:53;;;;;;;135.40;41.38;;;3.70;99.90;;;;;;5015575;28;20469;-73
2022/03/16 02:07:19;;;;;;;126.05;43.17;;;3.70;99.90;;;;;;5015812;28;20049;-74
2022/03/16 02:09:44;;;;;;;141.27;42.67;;;3.60;99.90;;;;;;5014737;28;20049;-74
2022/03/16 02:12:14;;;;;;;131.98;41.38;;;3.60;99.90;;;;;;5014992;28;20042;-73
2022/03/16 02:14:41;;;;;;;136.18;41.42;;;3.60;99.90;;;;;;4998591;28;20442;-73
2022/03/16 02:17:07;;;;;;;134.95;42.53;;;3.50;99.90;;;;;;5014894;28;20040;-74
2022/03/16 02:19:33;;;;;;;129.65;40.88;;;3.50;99.90;;;;;;4982391;28;20513;-74
2022/03/16 02:22:04;;;;;;;129.32;41.72;;;3.50;99.90;;;;;;5016344;28;20049;-74
2022/03/16 02:24:36;;;;;;;126.40;40.80;;;3.40;99.90;;;;;;4984085;28;20056;-74
2022/03/16 02:27:01;;;;;;;128.93;40.65;;;3.40;99.90;;;;;;4998519;28;20133;-74
2022/03/16 02:29:27;;;;;;;134.05;40.35;;;3.40;99.90;;;;;;5015898;28;20085;-74
2022/03/16 02:31:53;;;;;;;118.97;40.15;;;3.40;99.90;;;;;;5014510;28;20048;-74
2022/03/16 02:34:19;;;;;;;119.68;39.33;;;3.30;99.90;;;;;;5014509;28;20052;-74
2022/03/16 02:36:45;;;;;;;137.43;41.25;;;3.20;99.90;;;;;;5015840;28;20049;-73
2022/03/16 02:39:11;;;;;;;120.13;39.72;;;3.30;99.90;;;;;;5014583;28;20052;-71
2022/03/16 02:41:36;;;;;;;109.47;37.72;;;3.20;99.90;;;;;;5014831;28;20046;-73
2022/03/16 02:44:04;;;;;;;115.90;38.88;;;3.10;99.90;;;;;;4998182;28;20042;-73
2022/03/16 02:46:30;;;;;;;118.88;38.83;;;3.10;99.90;;;;;;5015077;28;20056;-73
2022/03/16 02:48:56;;;;;;;106.10;37.53;;;3.10;99.90;;;;;;5014301;28;20046;-73
2022/03/16 02:51:21;;;;;;;105.60;37.80;;;3.00;99.90;;;;;;4982000;28;20042;-74
2022/03/16 02:53:47;;;;;;;119.40;38.38;;;3.00;99.90;;;;;;4983089;28;20046;-73
2022/03/16 02:56:14;;;;;;;110.82;38.53;;;3.00;99.90;;;;;;5015754;28;20038;-73
2022/03/16 02:58:41;;;;;;;119.63;39.50;;;3.00;99.90;;;;;;5014723;28;20167;-74
2022/03/16 03:01:07;;;;;;;121.88;38.70;;;3.10;99.90;;;;;;4997834;28;20336;-73
2022/03/16 03:03:32;;;;;;;126.15;41.50;;;3.10;99.90;;;;;;5014808;28;20038;-73
2022/03/16 03:05:58;;;;;;;115.95;38.67;;;3.10;99.90;;;;;;4982977;28;20054;-75
2022/03/16 03:08:24;;;;;;;118.80;39.95;;;3.10;99.90;;;;;;5000217;28;20049;-72
2022/03/16 03:10:51;;;;;;;119.05;40.17;;;3.10;99.90;;;;;;5017310;28;20128;-72
2022/03/16 03:13:17;;;;;;;127.30;40.40;;;3.00;99.90;;;;;;4986062;28;20084;-73
2022/03/16 03:15:43;;;;;;;117.45;39.88;;;2.90;99.90;;;;;;5018617;28;20093;-73
2022/03/16 03:18:08;;;;;;;117.13;40.33;;;2.90;99.90;;;;;;5003969;28;20100;-73
2022/03/16 03:20:34;;;;;;;120.45;40.33;;;2.90;99.90;;;;;;5005216;28;20046;-73
2022/03/16 03:23:00;;;;;;;119.75;39.30;;;2.90;99.90;;;;;;5022706;28;20047;-72
2022/03/16 03:25:25;;;;;;;123.25;40.50;;;2.90;99.90;;;;;;5025284;28;20053;-73
2022/03/16 03:27:51;;;;;;;111.45;39.47;;;2.80;99.90;;;;;;5025221;28;20129;-73
2022/03/16 03:30:17;;;;;;;107.68;37.10;;;2.80;99.90;;;;;;5008942;28;20067;-72
2022/03/16 03:32:44;;;;;;;116.25;36.97;;;2.80;99.90;;;;;;5027332;28;20085;-72
2022/03/16 03:35:10;;;;;;;99.70;32.40;;;2.80;99.90;;;;;;5008214;28;20053;-74
2022/03/16 03:37:36;;;;;;;102.50;34.75;;;2.80;99.90;;;;;;5025657;28;20065;-73
2022/03/16 03:40:04;;;;;;;99.68;35.85;;;2.80;99.90;;;;;;5008389;28;20104;-72
2022/03/16 03:42:30;;;;;;;103.53;35.78;;;2.70;99.90;;;;;;5023850;28;20038;-72
2022/03/16 03:44:56;;;;;;;102.45;35.53;;;2.70;99.90;;;;;;5025149;28;20069;-72
2022/03/16 03:47:22;;;;;;;99.00;34.40;;;2.70;99.90;;;;;;5023021;28;20069;-71
2022/03/16 03:49:47;;;;;;;98.20;34.75;;;2.70;99.90;;;;;;5007632;28;20045;-73
2022/03/16 03:52:13;;;;;;;95.68;34.92;;;2.60;99.90;;;;;;5022808;28;20045;-72
2022/03/16 03:54:40;;;;;;;100.70;35.53;;;2.70;99.90;;;;;;5023927;28;20046;-71
2022/03/16 03:57:06;;;;;;;111.63;36.90;;;2.60;99.90;;;;;;5024714;28;20156;-73
2022/03/16 03:59:32;;;;;;;108.82;36.90;;;2.60;99.90;;;;;;5004734;28;20042;-73
2022/03/16 04:01:58;;;;;;;103.65;35.60;;;2.50;99.90;;;;;;5019438;28;20401;-72
2022/03/16 04:04:24;;;;;;;107.38;36.03;;;2.50;99.90;;;;;;5003925;28;20046;-73
2022/03/16 04:06:50;;;;;;;99.47;35.15;;;2.50;99.90;;;;;;5020127;28;20046;-73
2022/03/16 04:09:15;;;;;;;101.63;34.75;;;2.50;99.90;;;;;;5019226;28;20128;-73
2022/03/16 04:11:41;;;;;;;106.90;36.85;;;2.50;99.90;;;;;;4998593;28;20045;-75
2022/03/16 04:14:07;;;;;;;104.95;36.05;;;2.50;99.90;;;;;;4981092;28;20104;-74
2022/03/16 04:16:33;;;;;;;108.70;35.17;;;2.50;99.90;;;;;;5013390;28;20065;-73
2022/03/16 04:18:59;;;;;;;104.30;36.03;;;2.50;99.90;;;;;;4996009;28;20041;-74
2022/03/16 04:21:26;;;;;;;100.35;35.17;;;2.50;99.90;;;;;;4996066;28;20125;-74
2022/03/16 04:23:52;;;;;;;;;;;2.50;99.90;;;;;;4996887;28;20432;-73
2022/03/16 04:26:18;;;;;;;97.57;33.47;;;2.50;99.90;;;;;;5012568;28;19917;-74
2022/03/16 04:28:45;;;;;;;94.90;35.08;;;2.50;99.90;;;;;;5012057;28;20092;-74
2022/03/16 04:31:11;;;;;;;;;;;2.50;99.90;;;;;;4996446;28;20038;-73
2022/03/16 04:33:37;;;;;;;92.80;32.95;;;2.50;99.90;;;;;;5013221;28;19925;-75
2022/03/16 04:36:04;;;;;;;97.15;33.33;;;2.50;99.90;;;;;;5012401;28;20107;-74
2022/03/16 04:38:30;;;;;;;96.75;33.25;;;2.50;99.90;;;;;;4995824;28;20054;-74
2022/03/16 04:40:56;;;;;;;97.65;36.10;;;2.50;99.90;;;;;;4995590;28;20427;-74
2022/03/16 04:43:22;;;;;;;96.47;34.70;;;2.50;99.90;;;;;;4979513;28;20042;-74
2022/03/16 04:45:47;;;;;;;99.07;35.30;;;2.50;99.90;;;;;;5013260;28;20038;-74
2022/03/16 04:48:13;;;;;;;101.05;36.22;;;2.60;99.90;;;;;;5012798;28;20049;-74
2022/03/16 04:50:40;;;;;;;98.50;35.85;;;2.60;99.90;;;;;;4995602;28;20069;-73
2022/03/16 04:53:06;;;;;;;97.40;36.50;;;2.70;99.90;;;;;;5013911;28;20111;-74
2022/03/16 04:55:35;;;;;;;101.25;35.40;;;2.60;99.90;;;;;;5013121;28;20042;-74
2022/03/16 04:58:05;;;;;;;110.28;37.50;;;2.60;99.90;;;;;;5012986;28;20082;-74
2022/03/16 05:00:32;;;;;;;103.43;37.17;;;2.60;99.90;;;;;;5011920;28;20060;-75
2022/03/16 05:02:58;;;;;;;97.90;37.90;;;2.50;99.90;;;;;;5012045;28;20048;-73
2022/03/16 05:05:24;;;;;;;103.43;36.15;;;2.50;99.90;;;;;;5011906;28;20451;-74
2022/03/16 05:07:50;;;;;;;102.60;37.92;;;2.60;99.90;;;;;;5013382;28;20045;-74
2022/03/16 05:10:16;;;;;;;100.13;37.25;;;2.50;99.90;;;;;;5013524;28;20073;-74
2022/03/16 05:12:44;;;;;;;103.75;37.40;;;2.50;99.90;;;;;;5011978;28;20053;-76
2022/03/16 05:15:12;;;;;;;;;;;2.50;99.90;;;;;;5011996;28;20052;-75
2022/03/16 05:17:38;;;;;;;114.90;36.67;;;2.50;99.90;;;;;;4995355;28;19917;-78
2022/03/16 05:20:05;;;;;;;107.95;36.78;;;2.40;99.90;;;;;;5013467;28;20045;-78
2022/03/16 05:22:31;;;;;;;109.53;37.08;;;2.40;99.90;;;;;;5013370;28;20327;-73
2022/03/16 05:24:57;;;;;;;106.13;38.00;;;2.40;99.90;;;;;;4979942;28;20037;-72
2022/03/16 05:27:23;;;;;;;112.82;40.92;;;2.40;99.90;;;;;;5012852;28;20092;-73
2022/03/16 05:29:49;;;;;;;111.13;39.25;;;2.50;99.90;;;;;;5012624;28;20137;-73
2022/03/16 05:32:15;;;;;;;110.10;39.05;;;2.40;99.90;;;;;;5015455;28;20042;-74
2022/03/16 05:34:41;;;;;;;100.15;37.15;;;2.30;99.90;;;;;;5015817;28;20053;-73
2022/03/16 05:37:07;;;;;;;111.60;37.05;;;2.30;99.90;;;;;;5015384;28;20062;-73
2022/03/16 05:39:33;;;;;;;111.70;40.00;;;2.30;99.90;;;;;;5015421;28;20037;-72
2022/03/16 05:42:00;;;;;;;99.85;35.40;;;2.40;99.90;;;;;;4998878;28;20113;-73
2022/03/16 05:44:26;;;;;;;95.43;34.38;;;2.30;99.90;;;;;;5016260;28;20127;-74
2022/03/16 05:46:54;;;;;;;93.82;35.38;;;2.20;99.90;;;;;;5016686;28;20084;-74
2022/03/16 05:49:22;;;;;;;98.90;37.05;;;2.20;99.90;;;;;;4983127;28;20142;-74
2022/03/16 05:51:48;;;;;;;101.95;37.25;;;2.20;99.90;;;;;;4983410;28;20373;-74
2022/03/16 05:54:14;;;;;;;95.00;36.08;;;2.30;99.90;;;;;;4999757;28;20125;-74
2022/03/16 05:56:40;;;;;;;103.75;39.13;;;2.30;99.90;;;;;;5015559;28;20129;-74
2022/03/16 05:59:06;;;;;;;98.22;37.53;;;2.30;99.90;;;;;;5016383;28;20049;-74
2022/03/16 06:01:32;;;;;;;101.73;36.53;;;2.30;99.90;;;;;;5016199;28;20060;-74
2022/03/16 06:03:58;;;;;;;100.03;37.58;;;2.30;99.90;;;;;;5016148;28;20289;-75
2022/03/16 06:06:26;;;;;;;104.00;39.50;;;2.40;99.90;;;;;;5016052;28;20060;-74
2022/03/16 06:08:52;;;;;;;103.97;39.03;;;2.60;99.90;;;;;;4998963;28;20049;-74
2022/03/16 06:11:17;;;;;;;103.90;38.70;;;2.60;99.90;;;;;;5015518;28;20358;-73
2022/03/16 06:13:43;;;;;;;117.50;41.72;;;2.60;99.90;;;;;;4998806;28;20054;-73
2022/03/16 06:16:09;;;;;;;114.07;43.08;;;2.70;99.90;;;;;;5015711;28;20049;-73
2022/03/16 06:18:35;;;;;;;101.22;38.17;;;2.70;99.90;;;;;;4998426;28;20053;-73
2022/03/16 06:21:01;;;;;;;148.38;63.13;;;2.90;99.90;;;;;;5015306;28;20046;-72
2022/03/16 06:23:27;;;;;;;117.72;46.47;;;2.90;99.90;;;;;;5015975;28;20081;-73
2022/03/16 06:25:53;;;;;;;116.68;44.80;;;2.90;99.90;;;;;;4998540;28;20054;-73
2022/03/16 06:28:19;;;;;;;104.72;39.25;;;3.00;99.90;;;;;;4998582;28;20339;-74
2022/03/16 06:30:45;;;;;;;101.50;39.00;;;3.10;99.90;;;;;;4982145;28;20724;-75
2022/03/16 06:33:12;;;;;;;108.85;41.28;;;3.20;99.90;;;;;;4998007;28;20482;-73
2022/03/16 06:35:37;;;;;;;102.28;38.75;;;3.30;99.90;;;;;;5014303;28;20046;-73
2022/03/16 06:38:03;;;;;;;102.85;38.53;;;3.30;99.90;;;;;;5013700;28;20068;-73
2022/03/16 06:40:29;;;;;;;97.90;37.38;;;3.50;99.90;;;;;;5015764;28;20093;-73
2022/03/16 06:42:59;;;;;;;100.47;36.88;;;3.60;99.90;;;;;;4981219;28;20160;-74
2022/03/16 06:45:27;;;;;;;110.18;40.38;;;3.60;99.90;;;;;;4997937;28;20200;-74
2022/03/16 06:47:58;;;;;;;108.20;43.08;;;3.70;99.90;;;;;;5014253;28;20504;-74
2022/03/16 06:50:24;;;;;;;113.65;41.35;;;3.80;99.90;;;;;;4998179;28;20061;-74
2022/03/16 06:52:50;;;;;;;105.25;40.60;;;3.90;99.90;;;;;;5013373;28;20054;-79
2022/03/16 06:55:16;;;;;;;101.75;41.35;;;3.90;99.90;;;;;;5014234;28;20187;-75
2022/03/16 06:57:42;;;;;;;108.03;42.15;;;3.90;99.90;;;;;;5014004;28;20100;-75
2022/03/16 07:00:09;;;;;;;99.53;41.30;;;4.00;99.90;;;;;;4997945;28;20483;-79
2022/03/16 07:03:01;;;;;;;102.72;41.60;;;4.10;99.90;;;;;;4997173;28;20069;-74
2022/03/16 07:05:33;;;;;;;113.47;42.05;;;4.20;99.90;;;;;;5013728;28;20041;-73
2022/03/16 07:08:07;;;;;;;104.05;42.60;;;4.30;99.90;;;;;;4997459;28;20148;-74
2022/03/16 07:10:34;;;;;;;119.13;40.65;;;4.40;99.90;;;;;;5015546;28;20077;-74
2022/03/16 07:13:00;;;;;;;95.45;39.33;;;4.40;99.90;;;;;;5014293;28;20466;-75
2022/03/16 07:15:27;;;;;;;94.35;38.28;;;4.50;99.90;;;;;;5015001;28;20050;-75
2022/03/16 07:17:53;;;;;;;95.80;39.22;;;4.60;99.90;;;;;;5014559;28;20093;-78
2022/03/16 07:20:19;;;;;;;85.45;28.77;;;4.70;99.90;;;;;;5013110;28;20100;-74
2022/03/16 07:22:45;;;;;;;86.13;35.97;;;4.80;99.90;;;;;;4997598;28;20465;-74
2022/03/16 07:25:11;;;;;;;87.55;36.33;;;4.90;99.90;;;;;;5013220;28;20041;-74
2022/03/16 07:27:40;;;;;;;93.55;38.05;;;5.00;99.90;;;;;;5014731;28;20128;-75
2022/03/16 07:30:08;;;;;;;93.40;37.03;;;5.10;99.90;;;;;;5014692;28;20401;-78
2022/03/16 07:32:41;;;;;;;86.82;37.33;;;5.20;99.90;;;;;;5015054;28;20045;-73
2022/03/16 07:35:09;;;;;;;88.63;36.08;;;5.30;99.90;;;;;;5014210;28;20100;-74
2022/03/16 07:37:36;;;;;;;90.00;37.85;;;5.40;99.90;;;;;;5012919;28;20057;-73
2022/03/16 07:40:03;;;;;;;93.20;38.40;;;5.50;99.90;;;;;;5012957;28;20133;-75
2022/03/16 07:42:32;;;;;;;98.93;37.80;;;5.60;99.90;;;;;;5012916;28;20129;-73
2022/03/16 07:44:58;;;;;;;83.43;35.17;;;5.60;99.90;;;;;;5014057;28;20049;-73
2022/03/16 07:47:25;;;;;;;88.22;37.90;;;5.70;99.90;;;;;;5012855;28;20128;-74
2022/03/16 07:49:56;;;;;;;99.85;38.50;;;5.80;99.90;;;;;;5014803;28;20351;-74
2022/03/16 07:52:25;;;;;;;114.85;46.42;;;5.90;99.90;;;;;;5013603;28;20034;-74
2022/03/16 07:54:51;;;;;;;117.55;46.28;;;6.00;99.90;;;;;;5013137;28;20453;-74
2022/03/16 07:57:17;;;;;;;121.47;44.60;;;6.00;99.90;;;;;;5014592;28;20102;-74
2022/03/16 07:59:44;;;;;;;132.25;49.80;;;6.10;99.90;;;;;;5013509;28;20143;-74
2022/03/16 08:02:14;;;;;;;123.78;49.83;;;6.30;99.90;;;;;;4996320;28;20053;-75
2022/03/16 08:04:39;;;;;;;172.98;57.50;;;6.40;99.90;;;;;;5012598;28;20141;-74
2022/03/16 08:07:06;;;;;;;178.95;56.92;;;6.50;99.90;;;;;;4995988;28;20188;-75
2022/03/16 08:09:31;;;;;;;206.40;66.53;;;6.60;99.90;;;;;;4980162;28;20060;-74
2022/03/16 08:11:57;;;;;;;129.38;52.58;;;6.70;99.90;;;;;;5012505;28;20055;-74
2022/03/16 08:14:23;;;;;;;142.38;61.45;;;6.70;99.90;;;;;;4996255;28;20049;-74
2022/03/16 08:16:49;;;;;;;97.75;40.75;;;6.80;99.90;;;;;;5012632;28;20427;-75
2022/03/16 08:19:15;;;;;;;95.25;38.17;;;6.80;99.90;;;;;;4980341;28;20065;-74
2022/03/16 08:21:41;;;;;;;103.38;43.45;;;7.00;99.90;;;;;;5013695;28;20069;-75
2022/03/16 08:24:06;;;;;;;85.00;33.72;;;7.10;99.90;;;;;;5014117;28;20489;-74
2022/03/16 08:26:32;;;;;;;83.88;33.95;;;7.30;99.90;;;;;;4996214;28;20085;-74
2022/03/16 08:28:58;;;;;;;92.18;37.30;;;7.40;99.90;;;;;;4980099;28;20104;-74
2022/03/16 08:31:24;;;;;;;96.80;38.63;;;7.50;99.90;;;;;;4980680;28;20088;-75
2022/03/16 08:33:50;;;;;;;89.80;36.03;;;7.60;99.90;;;;;;4996175;28;20049;-74
2022/03/16 08:36:16;;;;;;;83.07;33.28;;;7.60;99.90;;;;;;5012473;28;20046;-74
2022/03/16 08:38:42;;;;;;;72.97;24.85;;;7.80;99.90;;;;;;5013056;28;20173;-75
2022/03/16 08:41:10;;;;;;;77.63;28.40;;;7.90;99.90;;;;;;5013003;28;20474;-75
2022/03/16 08:43:37;;;;;;;84.32;34.03;;;8.00;99.90;;;;;;5012210;28;20053;-74
2022/03/16 08:46:03;;;;;;;62.47;22.50;;;8.10;99.90;;;;;;4995696;28;20049;-78
2022/03/16 08:48:30;;;;;;;79.00;31.85;;;8.20;99.90;;;;;;4996206;28;20054;-73
2022/03/16 08:50:56;;;;;;;84.97;31.13;;;8.30;99.90;;;;;;5011860;28;20112;-73
2022/03/16 08:53:21;;;;;;;84.80;31.30;;;8.30;99.90;;;;;;4995613;28;20460;-73
2022/03/16 08:55:47;;;;;;;81.68;32.50;;;8.40;99.90;;;;;;5011980;28;20115;-73
2022/03/16 08:58:14;;;;;;;70.70;27.83;;;8.50;99.90;;;;;;5012804;28;20050;-74
2022/03/16 09:00:41;;;;;;;75.63;29.67;;;8.70;99.90;;;;;;5012705;28;20049;-75
2022/03/16 09:03:07;;;;;;;;;;;8.70;99.90;;;;;;4995861;28;20085;-72
2022/03/16 09:05:33;;;;;;;80.47;30.02;;;8.80;99.90;;;;;;4995022;28;19925;-72
2022/03/16 09:07:59;;;;;;;70.43;29.45;;;8.80;99.90;;;;;;5011974;28;20057;-74
2022/03/16 09:10:24;;;;;;;71.50;27.65;;;8.90;99.90;;;;;;5011653;28;20388;-73
2022/03/16 09:12:50;;;;;;;68.70;26.73;;;9.50;99.90;;;;;;5011661;28;20120;-72
2022/03/16 09:15:16;;;;;;;69.00;26.58;;;9.20;99.90;;;;;;5012922;28;20046;-72
2022/03/16 09:17:42;;;;;;;62.35;25.05;;;9.30;99.90;;;;;;4979651;28;20137;-73
2022/03/16 09:20:08;;;;;;;67.75;25.73;;;9.30;99.90;;;;;;5013081;28;20045;-72
2022/03/16 09:22:34;;;;;;;67.13;25.35;;;9.40;99.90;;;;;;5011943;28;20049;-72
2022/03/16 09:25:00;;;;;;;55.25;20.20;;;9.50;99.90;;;;;;4996383;28;20045;-72
2022/03/16 09:27:26;;;;;;;54.30;18.80;;;9.60;99.90;;;;;;5013260;28;20112;-72
2022/03/16 09:29:55;;;;;;;45.75;17.98;;;9.60;99.90;;;;;;5012842;28;20104;-74
2022/03/16 09:32:21;;;;;;;57.03;22.33;;;9.70;99.90;;;;;;5013475;28;20092;-73
2022/03/16 09:34:48;;;;;;;52.17;17.70;;;9.80;99.90;;;;;;5016470;28;20124;-78
2022/03/16 09:37:14;;;;;;;64.28;21.27;;;9.90;99.90;;;;;;5018051;28;20058;-72
2022/03/16 09:39:40;;;;;;;43.50;17.02;;;9.90;99.90;;;;;;5020867;28;20072;-74
2022/03/16 09:42:08;;;;;;;43.15;16.25;;;10.10;99.90;;;;;;5023217;28;20041;-73
2022/03/16 09:44:35;;;;;;;60.95;20.67;;;10.30;99.90;;;;;;5020724;28;20041;-75
2022/03/16 09:47:01;;;;;;;51.50;19.75;;;10.20;99.90;;;;;;5021046;28;20050;-74
2022/03/16 09:49:28;;;;;;;46.80;15.48;;;10.30;99.90;;;;;;5003650;28;20050;-73
2022/03/16 09:51:55;;;;;;;51.95;19.85;;;10.40;99.90;;;;;;5017594;28;20050;-73
2022/03/16 09:54:21;;;;;;;37.63;13.23;;;;;;;;;;5004016;28;20107;-74
2022/03/16 09:56:50;;;;;;;51.70;17.65;;;10.60;99.90;;;;;;5024541;28;20108;-74
2022/03/16 09:59:16;;;;;;;46.72;16.20;;;10.70;99.90;;;;;;5023090;28;20081;-74
2022/03/16 10:01:43;;;;;;;50.50;17.45;;;10.80;99.90;;;;;;5021492;28;20049;-73
2022/03/16 10:04:09;;;;;;;45.45;16.25;;;10.90;99.90;;;;;;5003304;28;20114;-77
2022/03/16 10:06:40;;;;;;;45.37;14.83;;;11.00;99.90;;;;;;5021091;28;20108;-72
2022/03/16 10:15:01;;;;;;;48.00;16.60;;;11.20;99.90;;;;;;5022281;28;20110;-73
2022/03/16 10:17:46;;;;;;;41.13;15.73;;;11.20;99.90;;;;;;5022157;28;20046;-75
2022/03/16 10:20:19;;;;;;;46.67;15.90;;;11.30;99.90;;;;;;5008181;28;20125;-73
2022/03/16 10:23:02;;;;;;;45.75;18.08;;;11.30;99.90;;;;;;5020896;28;20053;-73
2022/03/16 10:25:30;;;;;;;36.90;12.38;;;11.40;99.90;;;;;;5005681;28;20072;-73
2022/03/16 10:28:12;;;;;;;37.25;13.43;;;11.50;99.90;;;;;;4991428;28;20054;-73
2022/03/16 10:31:02;;;;;;;41.65;13.48;;;11.60;99.90;;;;;;5025649;28;20056;-73
2022/03/16 10:33:33;;;;;;;43.28;15.40;;;11.70;99.90;;;;;;5007821;28;20057;-74
2022/03/16 10:36:05;;;;;;;35.38;13.60;;;11.80;99.90;;;;;;5021831;28;20046;-71
2022/03/16 10:38:44;;;;;;;38.55;14.50;;;11.80;99.90;;;;;;5019679;28;20131;-73
2022/03/16 10:46:53;;;;;;;;;;;12.10;99.90;;;;;;5018702;28;20065;-73
2022/03/16 10:49:26;;;;;;;40.67;14.63;;;12.10;99.90;;;;;;5017476;28;20286;-73
2022/03/16 10:52:05;;;;;;;35.60;12.07;;;12.20;99.90;;;;;;5017826;28;20370;-73
2022/03/16 10:54:38;;;;;;;35.53;13.00;;;12.20;99.90;;;;;;4999223;28;20435;-73
2022/03/16 10:57:08;;;;;;;37.95;12.75;;;12.20;99.90;;;;;;5015382;28;20139;-73
2022/03/16 10:59:35;;;;;;;40.00;14.63;;;12.30;99.90;;;;;;5014478;28;20097;-73
2022/03/16 11:02:06;;;;;;;33.13;11.52;;;12.40;99.90;;;;;;5015305;28;20093;-74
2022/03/16 11:04:34;;;;;;;40.08;14.45;;;12.50;99.90;;;;;;4997770;28;20048;-75
2022/03/16 11:07:00;;;;;;;;;;;12.50;99.90;;;;;;4998141;28;20053;-73
2022/03/16 11:09:26;;;;;;;35.40;12.47;;;12.50;99.90;;;;;;5013816;28;19925;-73
2022/03/16 11:14:38;;;;;;;34.67;12.98;;;12.60;99.90;;;;;;5000283;28;20053;-71
2022/03/16 11:17:04;;;;;;;31.63;12.13;;;12.60;99.90;;;;;;5013462;28;20108;-73
2022/03/16 11:19:31;;;;;;;43.08;15.70;;;12.70;99.90;;;;;;5012994;28;20080;-72
2022/03/16 11:22:18;;;;;;;45.72;17.73;;;12.70;99.90;;;;;;5015249;28;20046;-72
2022/03/16 11:24:45;;;;;;;;;;;12.60;99.90;;;;;;4999489;28;20042;-73
2022/03/16 11:27:26;;;;;;;38.83;12.60;;;12.70;99.90;;;;;;5013293;28;20003;-73
2022/03/16 11:30:06;;;;;;;41.08;12.90;;;12.80;99.90;;;;;;5014686;28;20050;-72
2022/03/16 11:32:38;;;;;;;33.92;11.85;;;12.80;99.90;;;;;;5015120;28;20049;-74
2022/03/16 11:35:09;;;;;;;30.42;10.60;;;12.80;99.90;;;;;;4997852;28;20046;-76
2022/03/16 11:37:44;;;;;;;33.17;11.88;;;12.90;99.90;;;;;;5015008;28;20058;-74
2022/03/16 11:40:15;;;;;;;40.63;12.68;;;12.90;99.90;;;;;;4997565;28;20045;-74
2022/03/16 11:43:04;;;;;;;35.83;12.02;;;12.90;99.90;;;;;;4996504;28;20149;-74
2022/03/16 11:45:38;;;;;;;42.50;11.57;;;12.90;99.90;;;;;;4996588;28;20112;-73
2022/03/16 11:48:32;;;;;;;26.90;10.38;;;13.00;99.90;;;;;;5014671;28;20050;-73
2022/03/16 11:51:16;;;;;;;31.23;11.52;;;13.10;99.90;;;;;;4996556;28;20042;-73
2022/03/16 11:53:48;;;;;;;36.45;11.68;;;13.10;99.90;;;;;;5013800;28;20046;-73
2022/03/16 11:56:23;;;;;;;41.33;13.77;;;13.10;99.90;;;;;;5013939;28;20060;-73
2022/03/16 11:58:53;;;;;;;33.67;12.57;;;13.20;99.90;;;;;;4996849;28;20441;-72
2022/03/16 12:01:27;;;;;;;39.10;14.18;;;13.20;99.90;;;;;;5012696;28;20049;-72
2022/03/16 12:04:19;;;;;;;34.55;13.43;;;13.30;99.90;;;;;;5012948;28;20112;-73
2022/03/16 12:07:09;;;;;;;37.20;13.23;;;13.20;99.90;;;;;;5014248;28;20093;-73
2022/03/16 12:09:39;;;;;;;28.75;10.07;;;13.30;99.90;;;;;;4997040;28;20092;-72
2022/03/16 12:15:17;;;;;;;28.23;9.85;;;13.50;99.90;;;;;;5012224;28;20061;-75
2022/03/16 12:17:55;;;;;;;34.63;12.43;;;13.60;99.10;;;;;;5029025;28;20054;-74
2022/03/16 12:21:00;;;;;;;34.33;13.15;;;13.60;98.60;;;;;;4996171;28;20112;-73
2022/03/16 12:23:58;;;;;;;35.58;13.82;;;13.60;99.20;;;;;;5012761;28;20050;-76
2022/03/16 12:26:27;;;;;;;99.72;33.20;;;13.60;99.40;;;;;;4996617;28;20049;-74
2022/03/16 12:29:07;;;;;;;57.17;20.70;;;13.60;98.90;;;;;;4996664;28;20138;-74
2022/03/16 12:31:34;;;;;;;40.25;13.32;;;13.70;98.40;;;;;;4997041;28;20046;-73
2022/03/16 12:34:00;;;;;;;37.25;15.68;;;13.70;97.90;;;;;;5013628;28;20057;-73
2022/03/16 12:36:31;;;;;;;30.50;11.60;;;13.70;97.20;;;;;;5013507;28;20045;-78
2022/03/16 12:39:04;;;;;;;40.88;16.20;;;13.70;98.00;;;;;;5013101;28;20077;-73
2022/03/16 12:44:17;;;;;;;43.55;14.98;;;13.70;99.30;;;;;;5012266;28;20084;-74
2022/03/16 12:47:01;;;;;;;36.60;12.63;;;13.80;97.70;;;;;;5012222;28;20057;-74
2022/03/16 12:49:27;;;;;;;35.03;14.00;;;13.80;98.40;;;;;;5012578;28;20049;-73
2022/03/16 12:51:59;;;;;;;33.60;12.53;;;13.80;98.40;;;;;;5011768;28;20096;-73
2022/03/16 12:54:33;;;;;;;36.28;12.85;;;13.90;98.30;;;;;;4996585;28;20065;-72
2022/03/16 12:57:04;;;;;;;30.92;12.18;;;13.90;98.20;;;;;;4995536;28;20085;-73